Torhout, Belgium
Current Conditions -  °F | °C
As of 6:20 AM on Thursday 27 Nov 2014 (Local Time) from EBOS Reporting Station
Haze Haze  
Wind Chill: 50°   Ceiling: 300
Heat Index: 50°   Visibility: 1.2mi
Dew Point: 50°   Wind: 5mph
Humidity: 100%   Direction: 190°S
Pressure: 29.71"   Gusts: NA
Location:  51.07°N, 3.1°E
Report Text: EBOS 270520Z 19004KT 2000 BR BKN003 BKN005 10/10 Q1006 TEMPO BKN006
Loading
Personal Weather Stations






























Interactive Weather Map New forecast layout! Learn more

10-Day Weather Forecast

Advertisements
Track Severe Weather on mobile